sensor_id;sensor_type;location;lat;lon;timestamp;temperature;humidity
40085;DHT22;25786;51.504;7.344;2023-07-16T00:00:03;20.50;73.40
40085;DHT22;25786;51.504;7.344;2023-07-16T00:02:30;20.50;73.50
40085;DHT22;25786;51.504;7.344;2023-07-16T00:04:55;20.50;73.40
40085;DHT22;25786;51.504;7.344;2023-07-16T00:07:23;20.50;73.50
40085;DHT22;25786;51.504;7.344;2023-07-16T00:09:49;20.50;73.40
40085;DHT22;25786;51.504;7.344;2023-07-16T00:12:14;20.50;73.80
40085;DHT22;25786;51.504;7.344;2023-07-16T00:14:40;20.50;73.40
40085;DHT22;25786;51.504;7.344;2023-07-16T00:17:05;20.50;73.80
40085;DHT22;25786;51.504;7.344;2023-07-16T00:19:34;20.40;73.80
40085;DHT22;25786;51.504;7.344;2023-07-16T00:22:00;20.40;74.00
40085;DHT22;25786;51.504;7.344;2023-07-16T00:24:25;20.40;73.90
40085;DHT22;25786;51.504;7.344;2023-07-16T00:26:51;20.40;74.00
40085;DHT22;25786;51.504;7.344;2023-07-16T00:29:17;20.40;74.00
40085;DHT22;25786;51.504;7.344;2023-07-16T00:31:45;20.30;74.40
40085;DHT22;25786;51.504;7.344;2023-07-16T00:34:11;20.30;74.40
40085;DHT22;25786;51.504;7.344;2023-07-16T00:36:38;20.30;74.50
40085;DHT22;25786;51.504;7.344;2023-07-16T00:39:03;20.30;74.50
40085;DHT22;25786;51.504;7.344;2023-07-16T00:41:29;20.20;74.70
40085;DHT22;25786;51.504;7.344;2023-07-16T00:43:54;20.30;74.50
40085;DHT22;25786;51.504;7.344;2023-07-16T00:46:20;20.20;74.90
40085;DHT22;25786;51.504;7.344;2023-07-16T00:48:45;20.20;75.10
40085;DHT22;25786;51.504;7.344;2023-07-16T00:51:11;20.10;75.20
40085;DHT22;25786;51.504;7.344;2023-07-16T00:53:38;20.20;75.00
40085;DHT22;25786;51.504;7.344;2023-07-16T00:56:04;20.20;75.20
40085;DHT22;25786;51.504;7.344;2023-07-16T00:58:30;20.10;75.20
40085;DHT22;25786;51.504;7.344;2023-07-16T01:00:56;20.10;75.20
40085;DHT22;25786;51.504;7.344;2023-07-16T01:03:22;20.20;75.50
40085;DHT22;25786;51.504;7.344;2023-07-16T01:05:58;20.20;75.50
40085;DHT22;25786;51.504;7.344;2023-07-16T01:08:30;20.20;75.30
40085;DHT22;25786;51.504;7.344;2023-07-16T01:10:57;20.20;75.20
40085;DHT22;25786;51.504;7.344;2023-07-16T01:13:23;20.20;75.20
40085;DHT22;25786;51.504;7.344;2023-07-16T01:15:49;20.20;75.70
40085;DHT22;25786;51.504;7.344;2023-07-16T01:18:18;20.10;75.70
40085;DHT22;25786;51.504;7.344;2023-07-16T01:20:46;20.10;76.00
40085;DHT22;25786;51.504;7.344;2023-07-16T01:26:01;20.00;76.40
40085;DHT22;25786;51.504;7.344;2023-07-16T01:31:08;20.10;76.00
40085;DHT22;25786;51.504;7.344;2023-07-16T01:33:51;20.00;76.00
40085;DHT22;25786;51.504;7.344;2023-07-16T01:36:17;20.00;75.90
40085;DHT22;25786;51.504;7.344;2023-07-16T01:38:53;20.00;76.30
40085;DHT22;25786;51.504;7.344;2023-07-16T01:41:19;20.00;76.60
40085;DHT22;25786;51.504;7.344;2023-07-16T01:43:45;20.00;76.50
40085;DHT22;25786;51.504;7.344;2023-07-16T01:46:10;19.90;76.70
40085;DHT22;25786;51.504;7.344;2023-07-16T01:48:36;20.00;76.80
40085;DHT22;25786;51.504;7.344;2023-07-16T01:51:02;19.90;77.10
40085;DHT22;25786;51.504;7.344;2023-07-16T01:53:28;19.90;76.70
40085;DHT22;25786;51.504;7.344;2023-07-16T01:55:54;19.90;76.90
40085;DHT22;25786;51.504;7.344;2023-07-16T01:58:19;19.70;77.60
40085;DHT22;25786;51.504;7.344;2023-07-16T02:00:45;19.80;77.30
40085;DHT22;25786;51.504;7.344;2023-07-16T02:03:11;19.70;77.90
40085;DHT22;25786;51.504;7.344;2023-07-16T02:05:36;19.60;78.10
40085;DHT22;25786;51.504;7.344;2023-07-16T02:08:02;19.60;78.40
40085;DHT22;25786;51.504;7.344;2023-07-16T02:10:27;19.60;78.60
40085;DHT22;25786;51.504;7.344;2023-07-16T02:12:53;19.60;78.50
40085;DHT22;25786;51.504;7.344;2023-07-16T02:15:18;19.60;77.90
40085;DHT22;25786;51.504;7.344;2023-07-16T02:17:44;19.70;77.10
40085;DHT22;25786;51.504;7.344;2023-07-16T02:20:10;19.70;76.80
40085;DHT22;25786;51.504;7.344;2023-07-16T02:22:35;19.60;77.00
40085;DHT22;25786;51.504;7.344;2023-07-16T02:25:01;19.60;76.50
40085;DHT22;25786;51.504;7.344;2023-07-16T02:27:27;19.70;76.20
40085;DHT22;25786;51.504;7.344;2023-07-16T02:29:52;19.70;76.30
40085;DHT22;25786;51.504;7.344;2023-07-16T02:32:18;19.80;75.80
40085;DHT22;25786;51.504;7.344;2023-07-16T02:37:11;19.90;75.20
40085;DHT22;25786;51.504;7.344;2023-07-16T02:39:38;19.80;75.50
40085;DHT22;25786;51.504;7.344;2023-07-16T02:42:03;19.80;75.50
40085;DHT22;25786;51.504;7.344;2023-07-16T02:44:29;19.80;75.50
40085;DHT22;25786;51.504;7.344;2023-07-16T02:46:54;20.00;75.20
40085;DHT22;25786;51.504;7.344;2023-07-16T02:49:20;19.90;75.90
40085;DHT22;25786;51.504;7.344;2023-07-16T02:51:45;19.90;75.70
40085;DHT22;25786;51.504;7.344;2023-07-16T02:54:11;19.90;75.80
40085;DHT22;25786;51.504;7.344;2023-07-16T02:56:36;19.80;75.90
40085;DHT22;25786;51.504;7.344;2023-07-16T02:59:01;19.70;76.30
40085;DHT22;25786;51.504;7.344;2023-07-16T03:01:27;19.70;76.80
40085;DHT22;25786;51.504;7.344;2023-07-16T03:03:52;19.80;76.40
40085;DHT22;25786;51.504;7.344;2023-07-16T03:06:18;19.80;76.40
40085;DHT22;25786;51.504;7.344;2023-07-16T03:08:43;19.90;76.10
40085;DHT22;25786;51.504;7.344;2023-07-16T03:11:10;19.90;76.00
40085;DHT22;25786;51.504;7.344;2023-07-16T03:13:36;19.90;75.80
40085;DHT22;25786;51.504;7.344;2023-07-16T03:16:01;19.80;75.70
40085;DHT22;25786;51.504;7.344;2023-07-16T03:18:28;19.80;75.60
40085;DHT22;25786;51.504;7.344;2023-07-16T03:20:53;19.80;75.70
40085;DHT22;25786;51.504;7.344;2023-07-16T03:23:19;19.70;75.70
40085;DHT22;25786;51.504;7.344;2023-07-16T03:25:44;19.80;75.60
40085;DHT22;25786;51.504;7.344;2023-07-16T03:28:10;19.60;75.30
40085;DHT22;25786;51.504;7.344;2023-07-16T03:30:35;19.60;75.20
40085;DHT22;25786;51.504;7.344;2023-07-16T03:33:02;19.60;75.20
40085;DHT22;25786;51.504;7.344;2023-07-16T03:35:28;19.60;74.80
40085;DHT22;25786;51.504;7.344;2023-07-16T03:37:53;19.50;75.00
40085;DHT22;25786;51.504;7.344;2023-07-16T03:40:22;19.50;74.90
40085;DHT22;25786;51.504;7.344;2023-07-16T03:42:48;19.50;74.70
40085;DHT22;25786;51.504;7.344;2023-07-16T03:45:14;19.50;74.40
40085;DHT22;25786;51.504;7.344;2023-07-16T03:47:40;19.40;74.60
40085;DHT22;25786;51.504;7.344;2023-07-16T03:50:05;19.40;74.00
40085;DHT22;25786;51.504;7.344;2023-07-16T03:52:31;19.30;73.90
40085;DHT22;25786;51.504;7.344;2023-07-16T03:54:56;19.30;73.80
40085;DHT22;25786;51.504;7.344;2023-07-16T03:57:22;19.30;73.50
40085;DHT22;25786;51.504;7.344;2023-07-16T03:59:47;19.30;73.00
40085;DHT22;25786;51.504;7.344;2023-07-16T04:02:12;19.30;72.80
40085;DHT22;25786;51.504;7.344;2023-07-16T04:04:38;19.20;72.40
40085;DHT22;25786;51.504;7.344;2023-07-16T04:07:03;19.20;71.80
40085;DHT22;25786;51.504;7.344;2023-07-16T04:09:29;19.20;71.90
40085;DHT22;25786;51.504;7.344;2023-07-16T04:11:54;19.20;71.10
40085;DHT22;25786;51.504;7.344;2023-07-16T04:14:20;19.10;71.30
40085;DHT22;25786;51.504;7.344;2023-07-16T04:16:45;19.20;71.00
40085;DHT22;25786;51.504;7.344;2023-07-16T04:19:11;19.10;70.80
40085;DHT22;25786;51.504;7.344;2023-07-16T04:21:36;19.20;70.50
40085;DHT22;25786;51.504;7.344;2023-07-16T04:24:02;19.10;70.00
40085;DHT22;25786;51.504;7.344;2023-07-16T04:26:27;19.10;69.80
40085;DHT22;25786;51.504;7.344;2023-07-16T04:28:53;19.20;69.70
40085;DHT22;25786;51.504;7.344;2023-07-16T04:31:18;19.20;69.30
40085;DHT22;25786;51.504;7.344;2023-07-16T04:33:44;19.20;69.60
40085;DHT22;25786;51.504;7.344;2023-07-16T04:36:09;19.20;69.50
40085;DHT22;25786;51.504;7.344;2023-07-16T04:38:35;19.30;69.00
40085;DHT22;25786;51.504;7.344;2023-07-16T04:41:00;19.30;69.10
40085;DHT22;25786;51.504;7.344;2023-07-16T04:43:26;19.20;69.50
40085;DHT22;25786;51.504;7.344;2023-07-16T04:45:51;19.20;69.60
40085;DHT22;25786;51.504;7.344;2023-07-16T04:48:16;19.20;69.20
40085;DHT22;25786;51.504;7.344;2023-07-16T04:50:42;19.10;69.40
40085;DHT22;25786;51.504;7.344;2023-07-16T04:53:07;19.30;68.90
40085;DHT22;25786;51.504;7.344;2023-07-16T04:55:39;19.30;68.60
40085;DHT22;25786;51.504;7.344;2023-07-16T04:58:05;19.30;67.90
40085;DHT22;25786;51.504;7.344;2023-07-16T05:00:33;19.30;68.00
40085;DHT22;25786;51.504;7.344;2023-07-16T05:02:59;19.30;67.50
40085;DHT22;25786;51.504;7.344;2023-07-16T05:05:24;19.30;67.30
40085;DHT22;25786;51.504;7.344;2023-07-16T05:07:50;19.40;67.40
40085;DHT22;25786;51.504;7.344;2023-07-16T05:10:15;19.40;67.10
40085;DHT22;25786;51.504;7.344;2023-07-16T05:12:41;19.40;67.40
40085;DHT22;25786;51.504;7.344;2023-07-16T05:15:06;19.40;67.20
40085;DHT22;25786;51.504;7.344;2023-07-16T05:17:32;19.40;66.90
40085;DHT22;25786;51.504;7.344;2023-07-16T05:19:58;19.40;66.80
40085;DHT22;25786;51.504;7.344;2023-07-16T05:22:23;19.50;66.30
40085;DHT22;25786;51.504;7.344;2023-07-16T05:24:48;19.50;66.40
40085;DHT22;25786;51.504;7.344;2023-07-16T05:27:14;19.50;65.90
40085;DHT22;25786;51.504;7.344;2023-07-16T05:29:39;19.60;65.60
40085;DHT22;25786;51.504;7.344;2023-07-16T05:32:05;19.60;65.60
40085;DHT22;25786;51.504;7.344;2023-07-16T05:34:31;19.50;66.00
40085;DHT22;25786;51.504;7.344;2023-07-16T05:36:56;19.60;65.30
40085;DHT22;25786;51.504;7.344;2023-07-16T05:39:22;19.60;65.20
40085;DHT22;25786;51.504;7.344;2023-07-16T05:41:47;19.70;64.80
40085;DHT22;25786;51.504;7.344;2023-07-16T05:44:13;19.60;64.60
40085;DHT22;25786;51.504;7.344;2023-07-16T05:46:38;19.60;65.10
40085;DHT22;25786;51.504;7.344;2023-07-16T05:49:04;19.70;64.90
40085;DHT22;25786;51.504;7.344;2023-07-16T05:51:29;19.80;65.00
40085;DHT22;25786;51.504;7.344;2023-07-16T05:53:55;19.90;64.60
40085;DHT22;25786;51.504;7.344;2023-07-16T05:56:20;19.90;64.70
40085;DHT22;25786;51.504;7.344;2023-07-16T05:58:46;19.80;64.20
40085;DHT22;25786;51.504;7.344;2023-07-16T06:01:11;19.70;64.80
40085;DHT22;25786;51.504;7.344;2023-07-16T06:03:37;19.70;64.20
40085;DHT22;25786;51.504;7.344;2023-07-16T06:06:02;19.70;63.90
40085;DHT22;25786;51.504;7.344;2023-07-16T06:08:28;19.60;63.70
40085;DHT22;25786;51.504;7.344;2023-07-16T06:10:53;19.60;64.00
40085;DHT22;25786;51.504;7.344;2023-07-16T06:13:18;19.80;63.70
40085;DHT22;25786;51.504;7.344;2023-07-16T06:15:45;19.80;63.40
40085;DHT22;25786;51.504;7.344;2023-07-16T06:18:10;20.00;63.00
40085;DHT22;25786;51.504;7.344;2023-07-16T06:20:36;20.10;61.90
40085;DHT22;25786;51.504;7.344;2023-07-16T06:23:01;20.10;62.10
40085;DHT22;25786;51.504;7.344;2023-07-16T06:25:27;20.10;61.30
40085;DHT22;25786;51.504;7.344;2023-07-16T06:27:52;20.00;61.70
40085;DHT22;25786;51.504;7.344;2023-07-16T06:30:18;20.00;61.10
40085;DHT22;25786;51.504;7.344;2023-07-16T06:32:43;20.00;61.10
40085;DHT22;25786;51.504;7.344;2023-07-16T06:35:08;19.90;61.30
40085;DHT22;25786;51.504;7.344;2023-07-16T06:37:34;20.00;61.40
40085;DHT22;25786;51.504;7.344;2023-07-16T06:40:00;20.00;60.90
40085;DHT22;25786;51.504;7.344;2023-07-16T06:42:25;19.90;61.60
40085;DHT22;25786;51.504;7.344;2023-07-16T06:44:50;20.00;62.00
40085;DHT22;25786;51.504;7.344;2023-07-16T06:47:16;20.00;60.70
40085;DHT22;25786;51.504;7.344;2023-07-16T06:49:41;19.90;61.30
40085;DHT22;25786;51.504;7.344;2023-07-16T06:52:07;20.00;60.30
40085;DHT22;25786;51.504;7.344;2023-07-16T06:54:33;20.00;60.90
40085;DHT22;25786;51.504;7.344;2023-07-16T06:56:58;20.10;60.50
40085;DHT22;25786;51.504;7.344;2023-07-16T06:59:24;20.10;60.40
40085;DHT22;25786;51.504;7.344;2023-07-16T07:01:49;20.00;60.20
40085;DHT22;25786;51.504;7.344;2023-07-16T07:04:14;20.00;60.30
40085;DHT22;25786;51.504;7.344;2023-07-16T07:06:40;20.00;60.50
40085;DHT22;25786;51.504;7.344;2023-07-16T07:09:05;20.00;60.80
40085;DHT22;25786;51.504;7.344;2023-07-16T07:11:31;20.10;60.80
40085;DHT22;25786;51.504;7.344;2023-07-16T07:13:56;20.20;59.50
40085;DHT22;25786;51.504;7.344;2023-07-16T07:16:23;20.20;59.40
40085;DHT22;25786;51.504;7.344;2023-07-16T07:18:48;20.30;59.20
40085;DHT22;25786;51.504;7.344;2023-07-16T07:21:14;20.30;58.90
40085;DHT22;25786;51.504;7.344;2023-07-16T07:23:39;20.40;59.50
40085;DHT22;25786;51.504;7.344;2023-07-16T07:26:05;20.40;58.60
40085;DHT22;25786;51.504;7.344;2023-07-16T07:28:30;20.40;59.00
40085;DHT22;25786;51.504;7.344;2023-07-16T07:30:56;20.50;58.70
40085;DHT22;25786;51.504;7.344;2023-07-16T07:33:21;20.50;58.00
40085;DHT22;25786;51.504;7.344;2023-07-16T07:35:47;20.50;58.00
40085;DHT22;25786;51.504;7.344;2023-07-16T07:38:12;20.50;58.20
40085;DHT22;25786;51.504;7.344;2023-07-16T07:40:38;20.50;58.20
40085;DHT22;25786;51.504;7.344;2023-07-16T07:43:03;20.50;58.20
40085;DHT22;25786;51.504;7.344;2023-07-16T07:45:29;20.50;58.00
40085;DHT22;25786;51.504;7.344;2023-07-16T07:47:54;20.60;58.10
40085;DHT22;25786;51.504;7.344;2023-07-16T07:50:20;20.60;57.60
40085;DHT22;25786;51.504;7.344;2023-07-16T07:52:45;20.50;57.60
40085;DHT22;25786;51.504;7.344;2023-07-16T07:55:11;20.70;57.70
40085;DHT22;25786;51.504;7.344;2023-07-16T07:57:36;20.70;56.80
40085;DHT22;25786;51.504;7.344;2023-07-16T08:00:02;20.80;56.10
40085;DHT22;25786;51.504;7.344;2023-07-16T08:02:27;20.70;56.80
40085;DHT22;25786;51.504;7.344;2023-07-16T08:04:53;20.80;55.40
40085;DHT22;25786;51.504;7.344;2023-07-16T08:07:19;20.80;56.00
40085;DHT22;25786;51.504;7.344;2023-07-16T08:09:44;20.70;54.60
40085;DHT22;25786;51.504;7.344;2023-07-16T08:12:10;20.80;55.10
40085;DHT22;25786;51.504;7.344;2023-07-16T08:14:35;21.00;54.90
40085;DHT22;25786;51.504;7.344;2023-07-16T08:17:01;21.10;54.40
40085;DHT22;25786;51.504;7.344;2023-07-16T08:19:26;21.10;53.60
40085;DHT22;25786;51.504;7.344;2023-07-16T08:21:52;21.20;54.20
40085;DHT22;25786;51.504;7.344;2023-07-16T08:24:17;21.20;54.20
40085;DHT22;25786;51.504;7.344;2023-07-16T08:26:43;21.40;54.20
40085;DHT22;25786;51.504;7.344;2023-07-16T08:29:08;21.60;54.30
40085;DHT22;25786;51.504;7.344;2023-07-16T08:31:39;21.60;53.90
40085;DHT22;25786;51.504;7.344;2023-07-16T08:34:05;21.90;52.50
40085;DHT22;25786;51.504;7.344;2023-07-16T08:36:32;22.10;52.70
40085;DHT22;25786;51.504;7.344;2023-07-16T08:38:58;22.10;51.30
40085;DHT22;25786;51.504;7.344;2023-07-16T08:41:23;22.20;51.00
40085;DHT22;25786;51.504;7.344;2023-07-16T08:43:50;22.10;50.50
40085;DHT22;25786;51.504;7.344;2023-07-16T08:46:15;22.00;50.90
40085;DHT22;25786;51.504;7.344;2023-07-16T08:48:41;22.00;51.40
40085;DHT22;25786;51.504;7.344;2023-07-16T08:51:06;22.00;51.50
40085;DHT22;25786;51.504;7.344;2023-07-16T08:53:32;22.10;52.10
40085;DHT22;25786;51.504;7.344;2023-07-16T08:55:58;22.10;52.10
40085;DHT22;25786;51.504;7.344;2023-07-16T08:58:24;22.20;50.70
40085;DHT22;25786;51.504;7.344;2023-07-16T09:00:49;22.30;50.70
40085;DHT22;25786;51.504;7.344;2023-07-16T09:03:16;22.50;51.10
40085;DHT22;25786;51.504;7.344;2023-07-16T09:05:42;22.50;50.90
40085;DHT22;25786;51.504;7.344;2023-07-16T09:08:07;22.50;51.50
40085;DHT22;25786;51.504;7.344;2023-07-16T09:10:33;22.50;50.50
40085;DHT22;25786;51.504;7.344;2023-07-16T09:12:59;22.60;49.80
40085;DHT22;25786;51.504;7.344;2023-07-16T09:15:25;22.50;50.80
40085;DHT22;25786;51.504;7.344;2023-07-16T09:17:53;22.50;50.20
40085;DHT22;25786;51.504;7.344;2023-07-16T09:20:18;22.50;50.20
40085;DHT22;25786;51.504;7.344;2023-07-16T09:22:44;22.50;50.20
40085;DHT22;25786;51.504;7.344;2023-07-16T09:25:10;22.60;50.30
40085;DHT22;25786;51.504;7.344;2023-07-16T09:27:35;22.70;50.30
40085;DHT22;25786;51.504;7.344;2023-07-16T09:30:02;22.80;50.30
40085;DHT22;25786;51.504;7.344;2023-07-16T09:32:36;22.90;50.20
40085;DHT22;25786;51.504;7.344;2023-07-16T09:37:34;22.80;49.60
40085;DHT22;25786;51.504;7.344;2023-07-16T09:40:07;22.60;49.80
40085;DHT22;25786;51.504;7.344;2023-07-16T09:42:38;22.50;49.70
40085;DHT22;25786;51.504;7.344;2023-07-16T09:45:05;22.40;49.50
40085;DHT22;25786;51.504;7.344;2023-07-16T09:47:30;22.30;49.80
40085;DHT22;25786;51.504;7.344;2023-07-16T09:49:56;22.10;51.10
40085;DHT22;25786;51.504;7.344;2023-07-16T09:52:21;22.30;51.30
40085;DHT22;25786;51.504;7.344;2023-07-16T09:54:47;22.50;50.50
40085;DHT22;25786;51.504;7.344;2023-07-16T09:57:14;22.80;50.10
40085;DHT22;25786;51.504;7.344;2023-07-16T09:59:40;22.80;49.00
40085;DHT22;25786;51.504;7.344;2023-07-16T10:02:06;22.80;48.70
40085;DHT22;25786;51.504;7.344;2023-07-16T10:04:39;22.80;48.80
40085;DHT22;25786;51.504;7.344;2023-07-16T10:07:17;22.90;48.60
40085;DHT22;25786;51.504;7.344;2023-07-16T10:09:51;22.90;48.80
40085;DHT22;25786;51.504;7.344;2023-07-16T10:12:18;23.10;48.60
40085;DHT22;25786;51.504;7.344;2023-07-16T10:14:44;23.20;48.80
40085;DHT22;25786;51.504;7.344;2023-07-16T10:17:14;23.30;47.80
40085;DHT22;25786;51.504;7.344;2023-07-16T10:22:31;23.20;48.50
40085;DHT22;25786;51.504;7.344;2023-07-16T10:24:57;23.20;49.50
40085;DHT22;25786;51.504;7.344;2023-07-16T10:27:28;23.40;48.10
40085;DHT22;25786;51.504;7.344;2023-07-16T10:29:54;23.50;47.40
40085;DHT22;25786;51.504;7.344;2023-07-16T10:32:20;23.50;47.50
40085;DHT22;25786;51.504;7.344;2023-07-16T10:34:49;23.40;47.70
40085;DHT22;25786;51.504;7.344;2023-07-16T10:37:15;23.30;48.30
40085;DHT22;25786;51.504;7.344;2023-07-16T10:39:50;23.40;48.30
40085;DHT22;25786;51.504;7.344;2023-07-16T10:42:16;23.50;47.10
40085;DHT22;25786;51.504;7.344;2023-07-16T10:44:42;23.50;48.30
40085;DHT22;25786;51.504;7.344;2023-07-16T10:47:08;23.50;47.40
40085;DHT22;25786;51.504;7.344;2023-07-16T10:49:34;23.40;47.20
40085;DHT22;25786;51.504;7.344;2023-07-16T10:52:00;23.40;47.60
40085;DHT22;25786;51.504;7.344;2023-07-16T10:54:26;23.40;47.20
40085;DHT22;25786;51.504;7.344;2023-07-16T10:56:51;23.40;47.30
40085;DHT22;25786;51.504;7.344;2023-07-16T10:59:17;23.50;47.50
40085;DHT22;25786;51.504;7.344;2023-07-16T11:01:42;23.60;47.50
40085;DHT22;25786;51.504;7.344;2023-07-16T11:04:08;24.00;47.60
40085;DHT22;25786;51.504;7.344;2023-07-16T11:06:34;24.30;46.20
40085;DHT22;25786;51.504;7.344;2023-07-16T11:09:07;24.30;45.90
40085;DHT22;25786;51.504;7.344;2023-07-16T11:11:33;24.30;46.90
40085;DHT22;25786;51.504;7.344;2023-07-16T11:13:58;24.30;45.70
40085;DHT22;25786;51.504;7.344;2023-07-16T11:16:24;24.30;46.00
40085;DHT22;25786;51.504;7.344;2023-07-16T11:18:50;24.40;45.10
40085;DHT22;25786;51.504;7.344;2023-07-16T11:21:18;24.30;45.30
40085;DHT22;25786;51.504;7.344;2023-07-16T11:23:44;24.10;46.40
40085;DHT22;25786;51.504;7.344;2023-07-16T11:26:10;23.80;46.10
40085;DHT22;25786;51.504;7.344;2023-07-16T11:28:36;23.80;46.40
40085;DHT22;25786;51.504;7.344;2023-07-16T11:31:09;23.70;46.80
40085;DHT22;25786;51.504;7.344;2023-07-16T11:33:35;23.60;46.60
40085;DHT22;25786;51.504;7.344;2023-07-16T11:36:01;23.50;47.10
40085;DHT22;25786;51.504;7.344;2023-07-16T11:38:26;23.40;46.80
40085;DHT22;25786;51.504;7.344;2023-07-16T11:40:52;23.50;48.00
40085;DHT22;25786;51.504;7.344;2023-07-16T11:43:18;23.40;47.40
40085;DHT22;25786;51.504;7.344;2023-07-16T11:45:47;23.30;47.40
40085;DHT22;25786;51.504;7.344;2023-07-16T11:48:13;23.30;47.60
40085;DHT22;25786;51.504;7.344;2023-07-16T11:50:38;23.10;47.60
40085;DHT22;25786;51.504;7.344;2023-07-16T11:53:03;23.20;47.30
40085;DHT22;25786;51.504;7.344;2023-07-16T11:55:29;23.20;47.90
40085;DHT22;25786;51.504;7.344;2023-07-16T11:57:54;23.30;47.70
40085;DHT22;25786;51.504;7.344;2023-07-16T12:00:22;23.40;47.60
40085;DHT22;25786;51.504;7.344;2023-07-16T12:02:47;23.40;46.70
40085;DHT22;25786;51.504;7.344;2023-07-16T12:05:19;23.50;46.50
40085;DHT22;25786;51.504;7.344;2023-07-16T12:07:44;23.40;46.80
40085;DHT22;25786;51.504;7.344;2023-07-16T12:10:10;23.40;47.10
40085;DHT22;25786;51.504;7.344;2023-07-16T12:12:35;23.60;47.30
40085;DHT22;25786;51.504;7.344;2023-07-16T12:15:03;23.70;47.00
40085;DHT22;25786;51.504;7.344;2023-07-16T12:17:29;23.80;46.30
40085;DHT22;25786;51.504;7.344;2023-07-16T12:19:54;23.80;46.50
40085;DHT22;25786;51.504;7.344;2023-07-16T12:22:20;23.80;47.20
40085;DHT22;25786;51.504;7.344;2023-07-16T12:24:46;23.80;47.10
40085;DHT22;25786;51.504;7.344;2023-07-16T12:27:11;23.80;47.10
40085;DHT22;25786;51.504;7.344;2023-07-16T12:29:37;24.00;47.90
40085;DHT22;25786;51.504;7.344;2023-07-16T12:32:02;24.10;46.50
40085;DHT22;25786;51.504;7.344;2023-07-16T12:34:27;24.30;46.40
40085;DHT22;25786;51.504;7.344;2023-07-16T12:36:53;24.40;46.00
40085;DHT22;25786;51.504;7.344;2023-07-16T12:39:21;24.30;46.60
40085;DHT22;25786;51.504;7.344;2023-07-16T12:41:46;24.10;46.90
40085;DHT22;25786;51.504;7.344;2023-07-16T12:44:12;23.80;47.50
40085;DHT22;25786;51.504;7.344;2023-07-16T12:46:37;23.70;47.50
40085;DHT22;25786;51.504;7.344;2023-07-16T12:49:03;23.90;46.40
40085;DHT22;25786;51.504;7.344;2023-07-16T12:51:28;24.00;46.50
40085;DHT22;25786;51.504;7.344;2023-07-16T12:53:53;24.00;46.40
40085;DHT22;25786;51.504;7.344;2023-07-16T12:56:19;24.00;46.50
40085;DHT22;25786;51.504;7.344;2023-07-16T12:58:44;24.00;46.90
40085;DHT22;25786;51.504;7.344;2023-07-16T13:01:10;24.10;47.00
40085;DHT22;25786;51.504;7.344;2023-07-16T13:03:35;24.30;46.60
40085;DHT22;25786;51.504;7.344;2023-07-16T13:06:01;24.40;45.60
40085;DHT22;25786;51.504;7.344;2023-07-16T13:08:29;24.40;45.00
40085;DHT22;25786;51.504;7.344;2023-07-16T13:10:54;24.50;45.10
40085;DHT22;25786;51.504;7.344;2023-07-16T13:13:20;24.50;45.90
40085;DHT22;25786;51.504;7.344;2023-07-16T13:15:45;24.50;45.50
40085;DHT22;25786;51.504;7.344;2023-07-16T13:18:11;24.50;45.80
40085;DHT22;25786;51.504;7.344;2023-07-16T13:20:37;24.40;46.40
40085;DHT22;25786;51.504;7.344;2023-07-16T13:23:02;24.40;45.80
40085;DHT22;25786;51.504;7.344;2023-07-16T13:25:29;24.40;46.30
40085;DHT22;25786;51.504;7.344;2023-07-16T13:27:55;24.30;46.20
40085;DHT22;25786;51.504;7.344;2023-07-16T13:30:20;24.40;45.70
40085;DHT22;25786;51.504;7.344;2023-07-16T13:32:46;24.50;45.40
40085;DHT22;25786;51.504;7.344;2023-07-16T13:35:14;24.50;45.60
40085;DHT22;25786;51.504;7.344;2023-07-16T13:37:39;24.60;44.80
40085;DHT22;25786;51.504;7.344;2023-07-16T13:40:05;24.80;43.80
40085;DHT22;25786;51.504;7.344;2023-07-16T13:42:31;24.80;44.50
40085;DHT22;25786;51.504;7.344;2023-07-16T13:44:56;24.70;44.20
40085;DHT22;25786;51.504;7.344;2023-07-16T13:47:22;24.60;44.70
40085;DHT22;25786;51.504;7.344;2023-07-16T13:49:47;24.70;43.70
40085;DHT22;25786;51.504;7.344;2023-07-16T13:52:12;24.60;44.40
40085;DHT22;25786;51.504;7.344;2023-07-16T13:54:38;24.80;44.80
40085;DHT22;25786;51.504;7.344;2023-07-16T13:57:03;25.00;44.60
40085;DHT22;25786;51.504;7.344;2023-07-16T13:59:29;25.10;45.00
40085;DHT22;25786;51.504;7.344;2023-07-16T14:02:01;25.00;44.10
40085;DHT22;25786;51.504;7.344;2023-07-16T14:04:27;24.90;44.40
40085;DHT22;25786;51.504;7.344;2023-07-16T14:06:52;24.90;45.10
40085;DHT22;25786;51.504;7.344;2023-07-16T14:09:18;24.90;45.90
40085;DHT22;25786;51.504;7.344;2023-07-16T14:11:44;25.10;45.40
40085;DHT22;25786;51.504;7.344;2023-07-16T14:14:12;25.00;44.90
40085;DHT22;25786;51.504;7.344;2023-07-16T14:16:38;25.00;45.30
40085;DHT22;25786;51.504;7.344;2023-07-16T14:19:04;25.10;45.90
40085;DHT22;25786;51.504;7.344;2023-07-16T14:21:31;25.30;44.90
40085;DHT22;25786;51.504;7.344;2023-07-16T14:23:57;25.30;44.30
40085;DHT22;25786;51.504;7.344;2023-07-16T14:26:22;25.20;44.70
40085;DHT22;25786;51.504;7.344;2023-07-16T14:28:48;25.10;45.00
40085;DHT22;25786;51.504;7.344;2023-07-16T14:31:13;24.80;45.30
40085;DHT22;25786;51.504;7.344;2023-07-16T14:33:39;24.80;45.70
40085;DHT22;25786;51.504;7.344;2023-07-16T14:36:05;24.90;45.60
40085;DHT22;25786;51.504;7.344;2023-07-16T14:38:30;25.10;46.10
40085;DHT22;25786;51.504;7.344;2023-07-16T14:40:56;25.20;45.10
40085;DHT22;25786;51.504;7.344;2023-07-16T14:43:21;25.10;45.70
40085;DHT22;25786;51.504;7.344;2023-07-16T14:45:46;25.00;45.00
40085;DHT22;25786;51.504;7.344;2023-07-16T14:48:12;24.90;46.30
40085;DHT22;25786;51.504;7.344;2023-07-16T14:50:37;25.00;46.30
40085;DHT22;25786;51.504;7.344;2023-07-16T14:53:04;25.00;45.80
40085;DHT22;25786;51.504;7.344;2023-07-16T14:55:29;25.00;46.20
40085;DHT22;25786;51.504;7.344;2023-07-16T14:57:55;25.00;46.00
40085;DHT22;25786;51.504;7.344;2023-07-16T15:00:21;24.90;45.50
40085;DHT22;25786;51.504;7.344;2023-07-16T15:02:46;24.90;45.80
40085;DHT22;25786;51.504;7.344;2023-07-16T15:05:12;24.70;46.90
40085;DHT22;25786;51.504;7.344;2023-07-16T15:07:37;24.80;46.90
40085;DHT22;25786;51.504;7.344;2023-07-16T15:10:03;25.00;46.40
40085;DHT22;25786;51.504;7.344;2023-07-16T15:12:29;25.10;45.40
40085;DHT22;25786;51.504;7.344;2023-07-16T15:14:54;25.10;45.20
40085;DHT22;25786;51.504;7.344;2023-07-16T15:17:20;25.10;45.20
40085;DHT22;25786;51.504;7.344;2023-07-16T15:19:48;25.00;45.40
40085;DHT22;25786;51.504;7.344;2023-07-16T15:22:13;25.10;46.00
40085;DHT22;25786;51.504;7.344;2023-07-16T15:24:41;25.00;45.10
40085;DHT22;25786;51.504;7.344;2023-07-16T15:27:07;24.80;45.20
40085;DHT22;25786;51.504;7.344;2023-07-16T15:29:33;24.70;45.50
40085;DHT22;25786;51.504;7.344;2023-07-16T15:31:58;24.70;45.60
40085;DHT22;25786;51.504;7.344;2023-07-16T15:34:23;24.60;46.80